Hazen, Arkansas
Current Conditions -  °F | °C
As of 6:15 PM on Thursday 27 Nov 2014 (Local Time) from KSGT Reporting Station
Clear Clear  
Wind Chill: 35°   Ceiling: Unl
Heat Index: 39°   Visibility: 10mi
Dew Point: 30°   Wind: 6mph
Humidity: 70%   Direction: 220°SW
Pressure: 30.48"   Gusts: NA
Location:  34.78°N, 91.58°W
Report Text: KSGT 280015Z AUTO 22005KT 10SM CLR 04/M01 A3048 RMK AO1
Loading
Personal Weather Stations






























Interactive Weather Map New forecast layout! Learn more

10-Day Weather Forecast

Advertisements
Track Severe Weather on mobile